createdAt,value
2019-05-26T00:01:19.428Z,100510.31
2019-05-26T00:03:52.014Z,100498.99
2019-05-26T00:06:24.692Z,100499.06
2019-05-26T00:08:57.258Z,100492.11
2019-05-26T00:11:29.903Z,100498.26
2019-05-26T00:14:03.699Z,100487.84
2019-05-26T00:16:36.319Z,100491.50
2019-05-26T00:19:08.893Z,100487.23
2019-05-26T00:21:41.584Z,100490.47
2019-05-26T00:24:14.255Z,100483.11
2019-05-26T00:26:47.557Z,100486.68
2019-05-26T00:29:20.127Z,100486.76
2019-05-26T00:31:52.833Z,100488.20
2019-05-26T00:34:25.495Z,100494.81
2019-05-26T00:36:57.778Z,100492.27
2019-05-26T00:39:30.437Z,100493.22
2019-05-26T00:42:03.146Z,100492.90
2019-05-26T00:44:35.897Z,100494.70
2019-05-26T00:47:08.579Z,100493.88
2019-05-26T00:49:41.259Z,100497.94
2019-05-26T00:52:13.933Z,100499.84
2019-05-26T00:54:46.609Z,100498.17
2019-05-26T00:57:19.291Z,100496.52
2019-05-26T00:59:51.877Z,100497.45
2019-05-26T01:02:24.555Z,100490.55
2019-05-26T01:04:57.226Z,100495.38
2019-05-26T01:07:29.910Z,100499.38
2019-05-26T01:10:02.796Z,100494.20
2019-05-26T01:12:36.498Z,100500.34
2019-05-26T01:15:11.763Z,100492.94
2019-05-26T01:17:44.415Z,100488.16
2019-05-26T01:20:19.855Z,100484.22
2019-05-26T01:22:53.906Z,100486.42
2019-05-26T01:25:27.617Z,100483.27
2019-05-26T01:28:00.349Z,100490.73
2019-05-26T01:30:39.115Z,100495.51
2019-05-26T01:33:11.756Z,100497.70
2019-05-26T01:35:44.533Z,100496.40
2019-05-26T01:38:23.971Z,100492.88
2019-05-26T01:40:52.146Z,100488.59
2019-05-26T01:43:24.989Z,100491.69
2019-05-26T01:45:57.916Z,100496.09
2019-05-26T01:48:30.902Z,100496.98
2019-05-26T01:51:03.577Z,100489.52
2019-05-26T01:53:36.203Z,100491.27
2019-05-26T01:56:09.235Z,100493.46
2019-05-26T01:58:41.918Z,100490.91
2019-05-26T02:01:14.500Z,100487.44
2019-05-26T02:03:47.180Z,100485.19
2019-05-26T02:06:19.965Z,100479.16
2019-05-26T02:08:52.640Z,100470.48
2019-05-26T02:11:25.210Z,100472.70
2019-05-26T02:13:57.901Z,100471.80
2019-05-26T02:16:30.572Z,100474.47
2019-05-26T02:19:04.496Z,100489.34
2019-05-26T02:21:37.164Z,100489.75
2019-05-26T02:24:09.841Z,100485.77
2019-05-26T02:26:42.622Z,100478.37
2019-05-26T02:29:15.303Z,100471.84
2019-05-26T02:31:47.882Z,100475.80
2019-05-26T02:34:20.659Z,100477.10
2019-05-26T02:36:53.340Z,100475.80
2019-05-26T02:39:25.857Z,100480.21
2019-05-26T02:41:58.487Z,100478.11
2019-05-26T02:44:31.680Z,100475.11
2019-05-26T02:47:04.269Z,100479.52
2019-05-26T02:49:36.931Z,100471.19
2019-05-26T02:52:09.610Z,100482.20
2019-05-26T02:54:42.297Z,100477.84
2019-05-26T02:57:14.974Z,100481.78
2019-05-26T02:59:47.651Z,100482.68
2019-05-26T03:02:20.433Z,100476.63
2019-05-26T03:04:53.119Z,100472.27
2019-05-26T03:07:27.837Z,100475.84
2019-05-26T03:10:02.379Z,100469.74
2019-05-26T03:12:39.551Z,100464.92
2019-05-26T03:15:14.339Z,100459.70
2019-05-26T03:17:49.340Z,100455.35
2019-05-26T03:20:21.808Z,100465.95
2019-05-26T03:22:57.025Z,100463.33
2019-05-26T03:25:31.460Z,100459.85
2019-05-26T03:28:05.249Z,100465.58
2019-05-26T03:30:39.381Z,100461.22
2019-05-26T03:33:12.066Z,100463.38
2019-05-26T03:35:44.717Z,100467.31
2019-05-26T03:38:17.163Z,100467.83
2019-05-26T03:40:49.874Z,100465.66
2019-05-26T03:43:22.554Z,100469.61
2019-05-26T03:46:11.620Z,100463.94
2019-05-26T03:48:44.186Z,100466.56
2019-05-26T03:51:17.393Z,100463.09
2019-05-26T03:53:50.223Z,100461.40
2019-05-26T03:56:22.970Z,100464.95
2019-05-26T03:58:55.524Z,100470.21
2019-05-26T04:01:29.439Z,100475.09
2019-05-26T04:04:02.111Z,100465.98
2019-05-26T04:06:34.781Z,100471.66
2019-05-26T04:09:09.875Z,100470.05
2019-05-26T04:11:42.605Z,100476.23
2019-05-26T04:14:15.290Z,100474.33
2019-05-26T04:16:47.962Z,100473.98
2019-05-26T04:19:20.642Z,100482.00
2019-05-26T04:21:53.836Z,100475.90
2019-05-26T04:24:26.065Z,100472.92
2019-05-26T04:26:58.778Z,100469.32
2019-05-26T04:29:31.347Z,100471.99
2019-05-26T04:32:04.156Z,100466.34
2019-05-26T04:34:36.810Z,100471.61
2019-05-26T04:37:09.493Z,100473.81
2019-05-26T04:39:42.177Z,100473.04
2019-05-26T04:42:14.909Z,100469.48
2019-05-26T04:44:47.538Z,100477.41
2019-05-26T04:47:20.516Z,100470.05
2019-05-26T04:49:54.091Z,100465.76
2019-05-26T04:52:27.408Z,100468.42
2019-05-26T04:54:59.982Z,100464.94
2019-05-26T04:57:32.774Z,100466.72
2019-05-26T05:00:08.209Z,100469.84
2019-05-26T05:02:41.512Z,100468.98
2019-05-26T05:05:14.202Z,100466.95
2019-05-26T05:07:46.866Z,100472.67
2019-05-26T05:10:20.776Z,100466.55
2019-05-26T05:12:53.459Z,100467.08
2019-05-26T05:15:26.190Z,100468.84
2019-05-26T05:18:00.453Z,100474.97
2019-05-26T05:20:33.327Z,100464.13
2019-05-26T05:23:06.112Z,100474.22
2019-05-26T05:25:40.228Z,100468.98
2019-05-26T05:28:12.863Z,100470.76
2019-05-26T05:30:45.485Z,100468.58
2019-05-26T05:33:18.165Z,100466.91
2019-05-26T05:35:50.835Z,100471.00
2019-05-26T05:38:23.537Z,100469.31
2019-05-26T05:40:59.896Z,100476.27
2019-05-26T05:43:30.407Z,100470.62
2019-05-26T05:46:04.326Z,100475.47
2019-05-26T05:48:37.496Z,100475.02
2019-05-26T05:51:11.322Z,100475.13
2019-05-26T05:53:43.993Z,100466.73
2019-05-26T05:56:16.571Z,100463.67
2019-05-26T05:58:49.254Z,100467.25
2019-05-26T06:01:21.830Z,100471.75
2019-05-26T06:03:54.150Z,100468.84
2019-05-26T06:06:26.782Z,100470.10
2019-05-26T06:08:59.466Z,100471.88
2019-05-26T06:11:33.142Z,100471.48
2019-05-26T06:14:06.246Z,100464.85
2019-05-26T06:16:38.922Z,100468.02
2019-05-26T06:19:11.616Z,100457.96
2019-05-26T06:21:44.290Z,100461.47
2019-05-26T06:24:16.960Z,100462.80
2019-05-26T06:26:49.537Z,100467.18
2019-05-26T06:29:22.222Z,100461.94
2019-05-26T06:31:55.359Z,100467.22
2019-05-26T06:34:28.907Z,100465.46
2019-05-26T06:37:01.598Z,100468.09
2019-05-26T06:39:34.271Z,100462.81
2019-05-26T06:42:06.951Z,100472.92
2019-05-26T06:44:52.590Z,100465.86
2019-05-26T06:47:13.948Z,100452.22
2019-05-26T06:49:46.236Z,100461.02
2019-05-26T06:52:18.900Z,100459.17
2019-05-26T06:54:51.623Z,100462.75
2019-05-26T06:57:24.263Z,100465.36
2019-05-26T06:59:56.926Z,100463.62
2019-05-26T07:02:30.744Z,100463.62
2019-05-26T07:05:03.419Z,100456.09
2019-05-26T07:07:36.299Z,100455.14
2019-05-26T07:10:09.090Z,100454.27
2019-05-26T07:12:41.755Z,100451.97
2019-05-26T07:15:14.663Z,100450.12
2019-05-26T07:17:47.315Z,100448.43
2019-05-26T07:20:20.813Z,100450.18
2019-05-26T07:22:54.115Z,100448.29
2019-05-26T07:25:26.792Z,100442.27
2019-05-26T07:27:59.575Z,100446.19
2019-05-26T07:30:32.356Z,100433.58
2019-05-26T07:33:05.342Z,100431.42
2019-05-26T07:35:38.019Z,100441.37
2019-05-26T07:38:10.598Z,100444.20
2019-05-26T07:40:43.269Z,100443.58
2019-05-26T07:43:15.960Z,100453.52
2019-05-26T07:45:48.302Z,100441.98
2019-05-26T07:48:21.424Z,100448.97
2019-05-26T07:50:54.094Z,100441.99
2019-05-26T07:53:26.971Z,100448.43
2019-05-26T07:55:59.287Z,100445.95
2019-05-26T07:58:31.919Z,100441.23
2019-05-26T08:01:04.614Z,100440.27
2019-05-26T08:03:37.285Z,100437.88
2019-05-26T08:06:09.964Z,100440.47
2019-05-26T08:08:42.635Z,100439.04
2019-05-26T08:11:15.313Z,100442.73
2019-05-26T08:13:48.012Z,100427.10
2019-05-26T08:16:20.681Z,100435.16
2019-05-26T08:18:53.352Z,100427.75
2019-05-26T08:21:26.033Z,100426.09
2019-05-26T08:23:59.693Z,100431.72
2019-05-26T08:26:32.421Z,100433.73
2019-05-26T08:29:05.098Z,100429.30
2019-05-26T08:31:37.611Z,100416.81
2019-05-26T08:34:10.207Z,100413.05
2019-05-26T08:36:44.265Z,100419.62
2019-05-26T08:39:16.941Z,100412.66
2019-05-26T08:41:49.626Z,100418.69
2019-05-26T08:44:22.290Z,100413.23
2019-05-26T08:46:54.680Z,100419.38
2019-05-26T08:49:27.350Z,100416.23
2019-05-26T08:52:00.134Z,100419.70
2019-05-26T08:54:32.814Z,100427.83
2019-05-26T08:57:05.707Z,100419.41
2019-05-26T08:59:38.274Z,100401.66
2019-05-26T09:02:10.957Z,100391.45
2019-05-26T09:04:43.634Z,100397.22
2019-05-26T09:07:16.311Z,100403.58
2019-05-26T09:09:49.021Z,100414.66
2019-05-26T09:12:22.075Z,100398.05
2019-05-26T09:14:54.747Z,100402.38
2019-05-26T09:17:27.434Z,100390.33
2019-05-26T09:20:00.013Z,100378.27
2019-05-26T09:22:32.894Z,100379.06
2019-05-26T09:25:07.211Z,100381.31
2019-05-26T09:27:39.896Z,100389.30
2019-05-26T09:30:12.674Z,100378.52
2019-05-26T09:32:45.351Z,100375.59
2019-05-26T09:35:18.949Z,100382.97
2019-05-26T09:37:51.893Z,100374.54
2019-05-26T09:40:24.611Z,100381.45
2019-05-26T09:42:57.710Z,100378.47
2019-05-26T09:45:30.491Z,100383.39
2019-05-26T09:48:03.370Z,100391.14
2019-05-26T09:50:36.038Z,100381.27
2019-05-26T09:53:08.733Z,100367.33
2019-05-26T09:55:40.959Z,100374.50
2019-05-26T09:58:13.669Z,100372.59
2019-05-26T10:00:47.244Z,100371.12
2019-05-26T10:03:20.062Z,100384.88
2019-05-26T10:05:52.741Z,100381.22
2019-05-26T10:08:25.422Z,100379.70
2019-05-26T10:10:59.314Z,100366.70
2019-05-26T10:13:32.428Z,100353.75
2019-05-26T10:16:04.985Z,100360.38
2019-05-26T10:18:37.672Z,100361.77
2019-05-26T10:21:10.248Z,100363.27
2019-05-26T10:23:42.925Z,100353.04
2019-05-26T10:26:15.503Z,100357.25
2019-05-26T10:28:48.176Z,100363.74
2019-05-26T10:31:20.868Z,100351.39
2019-05-26T10:33:53.579Z,100354.00
2019-05-26T10:36:26.732Z,100360.53
2019-05-26T10:39:00.633Z,100338.47
2019-05-26T10:41:33.262Z,100333.70
2019-05-26T10:44:06.442Z,100326.19
2019-05-26T10:46:39.289Z,100339.53
2019-05-26T10:49:11.571Z,100339.61
2019-05-26T10:51:45.566Z,100333.16
2019-05-26T10:54:18.302Z,100327.54
2019-05-26T10:56:50.918Z,100313.39
2019-05-26T10:59:23.218Z,100323.11
2019-05-26T11:01:55.433Z,100305.22
2019-05-26T11:04:28.137Z,100308.61
2019-05-26T11:07:00.725Z,100306.41
2019-05-26T11:09:33.401Z,100301.86
2019-05-26T11:12:05.736Z,100290.53
2019-05-26T11:14:38.459Z,100302.16
2019-05-26T11:17:10.690Z,100304.22
2019-05-26T11:19:43.406Z,100287.73
2019-05-26T11:22:16.074Z,100284.05
2019-05-26T11:24:48.750Z,100291.78
2019-05-26T11:27:21.338Z,100287.50
2019-05-26T11:29:54.016Z,100273.93
2019-05-26T11:32:26.721Z,100277.98
2019-05-26T11:35:01.916Z,100279.92
2019-05-26T11:37:35.370Z,100272.52
2019-05-26T11:40:10.062Z,100274.33
2019-05-26T11:42:45.014Z,100270.98
2019-05-26T11:45:18.176Z,100268.11
2019-05-26T11:47:50.960Z,100272.36
2019-05-26T11:50:24.350Z,100260.59
2019-05-26T11:52:56.930Z,100255.07
2019-05-26T11:55:29.603Z,100257.25
2019-05-26T11:58:02.212Z,100241.46
2019-05-26T12:00:36.482Z,100247.47
2019-05-26T12:03:09.483Z,100262.17
2019-05-26T12:05:42.160Z,100238.81
2019-05-26T12:08:14.848Z,100247.77
2019-05-26T12:10:48.194Z,100239.72
2019-05-26T12:13:20.922Z,100228.42
2019-05-26T12:18:25.163Z,100222.64
2019-05-26T12:20:57.826Z,100222.58
2019-05-26T12:23:30.824Z,100213.52
2019-05-26T12:26:03.502Z,100220.66
2019-05-26T12:28:35.825Z,100207.04
2019-05-26T12:31:08.850Z,100206.63
2019-05-26T12:33:43.066Z,100208.79
2019-05-26T12:36:15.355Z,100196.34
2019-05-26T12:38:54.166Z,100192.00
2019-05-26T12:41:26.941Z,100193.40
2019-05-26T12:43:59.524Z,100204.36
2019-05-26T12:46:32.204Z,100191.58
2019-05-26T12:49:05.718Z,100187.42
2019-05-26T12:51:38.372Z,100180.63
2019-05-26T12:54:12.390Z,100187.72
2019-05-26T12:56:44.668Z,100173.33
2019-05-26T12:59:17.340Z,100175.38
2019-05-26T13:01:50.632Z,100167.65
2019-05-26T13:04:23.198Z,100158.06
2019-05-26T13:06:55.939Z,100164.49
2019-05-26T13:09:28.567Z,100162.27
2019-05-26T13:12:01.429Z,100173.20
2019-05-26T13:14:34.129Z,100160.92
2019-05-26T13:17:06.803Z,100159.48
2019-05-26T13:19:39.437Z,100166.54
2019-05-26T13:22:12.149Z,100165.97
2019-05-26T13:24:44.847Z,100161.77
2019-05-26T13:27:17.888Z,100157.91
2019-05-26T13:29:50.668Z,100146.86
2019-05-26T13:32:23.354Z,100148.52
2019-05-26T13:34:56.029Z,100153.53
2019-05-26T13:37:28.707Z,100157.94
2019-05-26T13:40:01.290Z,100140.06
2019-05-26T13:42:34.162Z,100142.70
2019-05-26T13:45:21.800Z,100136.36
2019-05-26T13:47:44.953Z,100138.48
2019-05-26T13:50:18.673Z,100137.47
2019-05-26T13:52:51.335Z,100136.16
2019-05-26T13:55:24.122Z,100132.23
2019-05-26T13:57:56.996Z,100126.93
2019-05-26T14:00:29.675Z,100125.90
2019-05-26T14:03:02.287Z,100123.48
2019-05-26T14:05:34.936Z,100119.73
2019-05-26T14:08:07.620Z,100111.97
2019-05-26T14:10:40.609Z,100118.11
2019-05-26T14:13:13.378Z,100115.63
2019-05-26T14:15:46.468Z,100128.69
2019-05-26T14:18:20.884Z,100122.57
2019-05-26T14:20:53.105Z,100118.87
2019-05-26T14:23:25.741Z,100119.38
2019-05-26T14:25:58.421Z,100116.00
2019-05-26T14:28:31.095Z,100098.58
2019-05-26T14:31:03.665Z,100105.14
2019-05-26T14:33:36.356Z,100101.37
2019-05-26T14:36:08.924Z,100094.62
2019-05-26T14:38:43.517Z,100095.50
2019-05-26T14:41:15.380Z,100077.31
2019-05-26T14:43:48.193Z,100082.95
2019-05-26T14:46:20.873Z,100083.45
2019-05-26T14:48:53.544Z,100088.09
2019-05-26T14:51:26.127Z,100092.82
2019-05-26T14:53:58.908Z,100086.41
2019-05-26T14:56:31.144Z,100081.67
2019-05-26T14:59:03.880Z,100090.86
2019-05-26T15:01:36.542Z,100081.59
2019-05-26T15:04:09.521Z,100083.64
2019-05-26T15:06:41.955Z,100080.96
2019-05-26T15:09:24.723Z,100073.69
2019-05-26T15:11:50.218Z,100069.78
2019-05-26T15:14:23.107Z,100076.57
2019-05-26T15:16:55.660Z,100076.77
2019-05-26T15:19:28.359Z,100069.81
2019-05-26T15:22:00.937Z,100071.92
2019-05-26T15:24:33.575Z,100069.48
2019-05-26T15:27:06.196Z,100075.16
2019-05-26T15:29:39.059Z,100080.33
2019-05-26T15:32:11.962Z,100061.10
2019-05-26T15:34:44.948Z,100060.38
2019-05-26T15:37:18.035Z,100058.00
2019-05-26T15:39:50.718Z,100053.38
2019-05-26T15:42:23.293Z,100047.80
2019-05-26T15:44:57.405Z,100040.97
2019-05-26T15:47:30.184Z,100038.74
2019-05-26T15:50:02.865Z,100038.74
2019-05-26T15:52:35.654Z,100060.02
2019-05-26T15:55:09.352Z,100047.81
2019-05-26T15:57:42.030Z,100047.66
2019-05-26T16:00:15.945Z,100041.50
2019-05-26T16:02:48.530Z,100043.27
2019-05-26T16:05:21.201Z,100044.06
2019-05-26T16:07:53.426Z,100043.52
2019-05-26T16:10:26.040Z,100050.62
2019-05-26T16:12:58.615Z,100044.66
2019-05-26T16:15:31.294Z,100049.70
2019-05-26T16:18:03.518Z,100047.20
2019-05-26T16:20:37.266Z,100057.58
2019-05-26T16:23:09.479Z,100055.36
2019-05-26T16:25:42.122Z,100051.73
2019-05-26T16:28:14.794Z,100051.55
2019-05-26T16:30:47.891Z,100053.19
2019-05-26T16:33:20.572Z,100051.31
2019-05-26T16:35:55.505Z,100048.52
2019-05-26T16:38:27.566Z,100050.39
2019-05-26T16:41:00.275Z,100046.38
2019-05-26T16:43:32.917Z,100048.69
2019-05-26T16:46:05.822Z,100041.45
2019-05-26T16:48:38.510Z,100037.67
2019-05-26T16:51:11.260Z,100033.34
2019-05-26T16:53:43.936Z,100035.93
2019-05-26T16:56:16.735Z,100038.86
2019-05-26T16:58:49.409Z,100034.94
2019-05-26T17:01:22.082Z,100034.41
2019-05-26T17:03:54.858Z,100040.56
2019-05-26T17:06:27.538Z,100040.09
2019-05-26T17:09:00.221Z,100039.63
2019-05-26T17:11:32.901Z,100036.33
2019-05-26T17:14:05.578Z,100040.37
2019-05-26T17:16:38.319Z,100035.34
2019-05-26T17:19:10.946Z,100029.64
2019-05-26T17:21:43.617Z,100027.73
2019-05-26T17:24:21.731Z,100027.44
2019-05-26T17:26:55.940Z,100028.00
2019-05-26T17:29:28.166Z,100023.30
2019-05-26T17:32:00.939Z,100021.47
2019-05-26T17:34:33.571Z,100027.34
2019-05-26T17:37:06.487Z,100034.97
2019-05-26T17:39:39.127Z,100028.98
2019-05-26T17:42:11.811Z,100027.97
2019-05-26T17:44:44.031Z,100033.93
2019-05-26T17:47:29.075Z,100031.81
2019-05-26T17:49:51.073Z,100031.94
2019-05-26T17:52:23.650Z,100033.75
2019-05-26T17:54:56.228Z,100031.78
2019-05-26T17:57:29.161Z,100037.37
2019-05-26T18:00:01.388Z,100027.58
2019-05-26T18:02:35.389Z,100023.37
2019-05-26T18:05:08.272Z,100025.88
2019-05-26T18:07:42.610Z,100029.89
2019-05-26T18:10:17.246Z,100027.88
2019-05-26T18:12:50.787Z,100032.50
2019-05-26T18:15:24.628Z,100037.63
2019-05-26T18:17:59.204Z,100035.64
2019-05-26T18:20:32.442Z,100035.25
2019-05-26T18:23:04.968Z,100039.12
2019-05-26T18:25:37.591Z,100033.80
2019-05-26T18:28:10.166Z,100036.95
2019-05-26T18:30:44.111Z,100034.00
2019-05-26T18:33:18.433Z,100039.94
2019-05-26T18:35:51.449Z,100041.48
2019-05-26T18:38:24.379Z,100043.48
2019-05-26T18:40:57.058Z,100046.38
2019-05-26T18:43:30.045Z,100039.05
2019-05-26T18:46:02.734Z,100041.92
2019-05-26T18:48:40.522Z,100042.45
2019-05-26T18:51:21.787Z,100039.02
2019-05-26T18:54:02.620Z,100041.05
2019-05-26T18:56:53.510Z,100040.67
2019-05-26T18:59:28.395Z,100040.95
2019-05-26T19:02:04.784Z,100050.84
2019-05-26T19:04:41.850Z,100044.72
2019-05-26T19:07:19.504Z,100048.02
2019-05-26T19:09:55.013Z,100056.92
2019-05-26T19:12:29.020Z,100044.66
2019-05-26T19:15:04.431Z,100045.66
2019-05-26T19:17:38.269Z,100045.30
2019-05-26T19:20:16.716Z,100051.61
2019-05-26T19:22:48.843Z,100041.05
2019-05-26T19:25:23.669Z,100043.27
2019-05-26T19:27:59.092Z,100043.34
2019-05-26T19:30:32.724Z,100037.63
2019-05-26T19:33:05.745Z,100042.95
2019-05-26T19:35:42.149Z,100044.39
2019-05-26T19:38:30.586Z,100043.13
2019-05-26T19:41:08.733Z,100043.20
2019-05-26T19:43:48.575Z,100040.16
2019-05-26T19:46:25.727Z,100037.52
2019-05-26T19:48:59.273Z,100032.66
2019-05-26T19:51:31.935Z,100037.58
2019-05-26T19:54:04.619Z,100031.00
2019-05-26T19:56:37.293Z,100036.38
2019-05-26T19:59:09.747Z,100031.95
2019-05-26T20:01:42.451Z,100030.69
2019-05-26T20:04:16.055Z,100033.33
2019-05-26T20:06:48.660Z,100027.09
2019-05-26T20:09:21.300Z,100023.55
2019-05-26T20:11:53.709Z,100027.52
2019-05-26T20:14:26.441Z,100029.30
2019-05-26T20:16:59.122Z,100022.14
2019-05-26T20:19:31.805Z,100025.25
2019-05-26T20:22:04.477Z,100020.77
2019-05-26T20:24:37.056Z,100020.43
2019-05-26T20:27:09.737Z,100022.27
2019-05-26T20:29:42.314Z,100016.62
2019-05-26T20:32:14.997Z,100021.45
2019-05-26T20:34:47.671Z,100023.71
2019-05-26T20:37:20.355Z,100017.58
2019-05-26T20:39:52.936Z,100017.53
2019-05-26T20:42:25.709Z,100013.96
2019-05-26T20:44:58.722Z,100009.48
2019-05-26T20:47:31.910Z,100009.30
2019-05-26T20:50:08.260Z,100009.69
2019-05-26T20:52:40.944Z,100011.53
2019-05-26T20:55:13.719Z,100008.88
2019-05-26T20:57:46.598Z,100005.75
2019-05-26T21:00:19.666Z,100001.34
2019-05-26T21:02:52.369Z,99999.51
2019-05-26T21:05:24.941Z,99996.45
2019-05-26T21:07:58.013Z,99991.61
2019-05-26T21:10:30.606Z,99991.28
2019-05-26T21:13:02.848Z,99996.70
2019-05-26T21:15:35.863Z,99990.13
2019-05-26T21:18:08.553Z,99993.41
2019-05-26T21:20:43.067Z,99993.91
2019-05-26T21:23:15.756Z,99994.08
2019-05-26T21:25:48.320Z,99988.84
2019-05-26T21:28:21.063Z,99983.59
2019-05-26T21:30:53.675Z,99986.39
2019-05-26T21:33:26.358Z,99989.17
2019-05-26T21:35:58.942Z,99987.59
2019-05-26T21:38:31.611Z,99987.20
2019-05-26T21:41:04.189Z,99985.58
2019-05-26T21:43:36.872Z,99987.45
2019-05-26T21:46:09.452Z,99990.72
2019-05-26T21:48:42.126Z,99991.60
2019-05-26T21:51:14.912Z,99982.00
2019-05-26T21:53:47.586Z,99983.03
2019-05-26T21:56:19.797Z,99987.41
2019-05-26T21:58:52.130Z,99987.05
2019-05-26T22:01:24.913Z,99990.70
2019-05-26T22:03:58.098Z,99989.47
2019-05-26T22:06:30.648Z,99990.50
2019-05-26T22:09:03.479Z,99991.52
2019-05-26T22:11:35.972Z,99993.38
2019-05-26T22:14:08.815Z,99977.48
2019-05-26T22:16:41.696Z,99982.34
2019-05-26T22:19:14.789Z,99975.18
2019-05-26T22:21:47.671Z,99982.64
2019-05-26T22:24:20.351Z,99974.20
2019-05-26T22:26:52.561Z,99968.55
2019-05-26T22:29:25.220Z,99969.52
2019-05-26T22:31:57.775Z,99967.36
2019-05-26T22:34:30.455Z,99965.60
2019-05-26T22:37:03.032Z,99963.87
2019-05-26T22:39:35.718Z,99963.93
2019-05-26T22:42:08.793Z,99949.88
2019-05-26T22:44:41.482Z,99954.05
2019-05-26T22:47:14.058Z,99951.43
2019-05-26T22:49:46.729Z,99949.31
2019-05-26T22:52:19.623Z,99949.02
2019-05-26T22:54:52.600Z,99945.92
2019-05-26T22:57:25.229Z,99950.81
2019-05-26T22:59:57.577Z,99944.69
2019-05-26T23:02:30.244Z,99950.47
2019-05-26T23:05:02.598Z,99945.17
2019-05-26T23:07:35.077Z,99946.63
2019-05-26T23:10:09.130Z,99944.42
2019-05-26T23:12:41.260Z,99940.09
2019-05-26T23:15:15.368Z,99939.73
2019-05-26T23:17:49.286Z,99940.30
2019-05-26T23:20:23.900Z,99941.25
2019-05-26T23:22:57.192Z,99940.45
2019-05-26T23:25:30.593Z,99944.78
2019-05-26T23:28:04.603Z,99939.93
2019-05-26T23:30:38.632Z,99941.41
2019-05-26T23:33:13.541Z,99937.95
2019-05-26T23:35:47.549Z,99936.67
2019-05-26T23:38:21.097Z,99931.89
2019-05-26T23:40:55.065Z,99936.84
2019-05-26T23:43:28.973Z,99932.47
2019-05-26T23:46:01.852Z,99925.34
2019-05-26T23:48:34.435Z,99930.71
2019-05-26T23:51:07.007Z,99943.09
2019-05-26T23:53:39.489Z,99921.42
2019-05-26T23:56:12.166Z,99928.98
2019-05-26T23:58:46.224Z,99924.61
